Time;durP1;ratioP1;P1;durP2;ratioP2;P2;SDS_P1;SDS_P2;PMS_P1;PMS_P2;Temp;Humidity;BMP_temperature;BMP_pressure;BME280_temperature;BME280_humidity;BME280_pressure;Samples;Min_cycle;Max_cycle;Signal;HPM_P1;HPM_P2
2021/08/07 00:02:04;;;;;;;11.90;3.65;;;;;;;23.04;52.93;100269.72;5036243;28;20088;-60
2021/08/07 00:04:30;;;;;;;8.45;2.88;;;;;;;23.07;52.96;100271.16;5035293;28;20072;-61
2021/08/07 00:06:55;;;;;;;10.20;2.13;;;;;;;23.10;53.55;100284.38;5036614;28;20029;-61
2021/08/07 00:09:20;;;;;;;7.47;1.92;;;;;;;23.12;53.03;100291.28;5036868;28;20037;-61
2021/08/07 00:11:46;;;;;;;2.28;1.05;;;;;;;23.16;52.93;100292.53;5035249;28;20025;-61
2021/08/07 00:14:11;;;;;;;1.23;0.60;;;;;;;23.15;53.79;100287.28;5034825;28;20386;-61
2021/08/07 00:16:37;;;;;;;0.90;0.60;;;;;;;23.20;53.72;100290.16;5035386;28;20029;-60
2021/08/07 00:19:02;;;;;;;0.80;0.77;;;;;;;23.21;53.37;100280.91;5036492;28;20028;-60
2021/08/07 00:21:28;;;;;;;5.00;1.00;;;;;;;23.22;53.69;100274.41;5035786;28;20431;-61
2021/08/07 00:23:53;;;;;;;1.38;1.08;;;;;;;23.21;53.28;100275.44;5036427;28;20083;-61
2021/08/07 00:26:18;;;;;;;1.92;1.00;;;;;;;23.16;52.95;100264.34;5036059;28;20040;-62
2021/08/07 00:28:44;;;;;;;2.85;0.80;;;;;;;23.14;52.86;100255.56;5034004;28;20076;-61
2021/08/07 00:31:09;;;;;;;2.30;1.30;;;;;;;23.10;52.75;100257.91;5015963;28;20033;-61
2021/08/07 00:33:34;;;;;;;1.15;0.70;;;;;;;23.05;53.52;100249.53;5015950;28;20034;-61
2021/08/07 00:36:00;;;;;;;2.78;0.90;;;;;;;23.05;52.97;100251.44;5014638;28;20475;-60
2021/08/07 00:38:25;;;;;;;3.67;0.82;;;;;;;23.04;53.81;100247.00;5014571;28;20081;-61
2021/08/07 00:40:51;;;;;;;0.95;0.75;;;;;;;23.07;53.77;100241.09;5016354;28;20032;-60
2021/08/07 00:43:17;;;;;;;0.90;0.52;;;;;;;23.05;53.69;100224.09;5014991;28;20402;-61
2021/08/07 00:45:42;;;;;;;1.42;0.68;;;;;;;23.08;53.34;100229.13;5015087;28;20025;-61
2021/08/07 00:48:08;;;;;;;1.95;1.20;;;;;;;23.08;53.70;100226.38;5016152;28;20382;-61
2021/08/07 00:50:34;;;;;;;2.45;2.08;;;;;;;23.10;53.64;100236.03;5016074;28;20028;-61
2021/08/07 00:53:01;;;;;;;2.40;0.88;;;;;;;23.12;53.99;100239.38;5016043;28;20040;-61
2021/08/07 00:55:27;;;;;;;1.35;1.02;;;;;;;23.13;52.57;100235.59;5025339;28;20109;-61
2021/08/07 00:57:52;;;;;;;5.05;1.30;;;;;;;23.16;53.69;100234.28;5015394;28;20112;-60
2021/08/07 01:00:17;;;;;;;1.00;0.90;;;;;;;23.20;53.74;100238.22;5015402;28;20040;-61
2021/08/07 01:02:52;;;;;;;0.80;0.57;;;;;;;23.24;52.50;100233.16;5014906;28;20034;-61
2021/08/07 01:05:24;;;;;;;3.67;0.77;;;;;;;23.27;52.79;100222.63;5015397;28;20036;-60
2021/08/07 01:08:15;;;;;;;3.60;0.98;;;;;;;23.29;52.43;100223.22;5014460;28;20022;-61
2021/08/07 01:10:46;;;;;;;1.48;0.80;;;;;;;23.29;53.45;100223.22;5014746;28;20036;-60
2021/08/07 01:13:23;;;;;;;1.98;1.27;;;;;;;23.30;52.24;100224.91;5015362;28;20052;-61
2021/08/07 01:16:26;;;;;;;5.97;1.83;;;;;;;23.30;52.40;100216.69;5013900;28;20022;-61
2021/08/07 01:18:51;;;;;;;9.82;2.60;;;;;;;23.31;52.80;100214.81;5011457;28;20045;-62
2021/08/07 01:21:19;;;;;;;12.60;2.50;;;;;;;23.31;52.13;100221.09;5013738;28;20414;-61
2021/08/07 01:23:56;;;;;;;9.57;2.88;;;;;;;23.31;53.19;100214.81;5014489;28;20072;-62
2021/08/07 01:26:29;;;;;;;8.68;2.72;;;;;;;23.31;52.80;100214.81;5013681;28;20029;-61
2021/08/07 01:28:56;;;;;;;4.82;1.98;;;;;;;23.29;52.09;100206.81;5013996;28;20036;-62
2021/08/07 01:31:22;;;;;;;3.97;1.55;;;;;;;23.30;52.34;100203.03;5013877;28;20080;-61
2021/08/07 01:33:47;;;;;;;5.13;1.88;;;;;;;23.30;52.92;100199.47;5013587;28;20022;-61
2021/08/07 01:36:14;;;;;;;5.00;1.27;;;;;;;23.30;52.15;100208.50;5014995;28;20026;-62
2021/08/07 01:38:43;;;;;;;3.45;1.27;;;;;;;23.28;52.84;100205.16;5013821;28;20438;-61
2021/08/07 01:41:17;;;;;;;2.55;1.25;;;;;;;23.14;52.96;100182.59;5013705;28;20029;-62
2021/08/07 01:43:42;;;;;;;1.77;1.35;;;;;;;23.22;52.38;100195.13;5013545;28;20040;-61
2021/08/07 01:46:10;;;;;;;5.40;1.52;;;;;;;23.25;52.90;100205.63;5015455;28;20367;-61
2021/08/07 01:48:52;;;;;;;1.92;1.20;;;;;;;23.25;52.05;100205.63;5014828;28;20041;-61
2021/08/07 01:51:20;;;;;;;1.00;0.93;;;;;;;23.19;52.93;100195.59;5014384;28;20030;-60
2021/08/07 01:53:48;;;;;;;2.00;0.93;;;;;;;23.22;52.08;100194.28;5014743;28;20041;-61
2021/08/07 01:56:25;;;;;;;2.70;1.05;;;;;;;23.23;52.90;100193.25;5014622;28;20475;-61
2021/08/07 01:59:00;;;;;;;1.88;1.48;;;;;;;23.23;52.11;100196.78;5013082;28;20029;-61
2021/08/07 02:01:26;;;;;;;0.90;0.90;;;;;;;23.24;52.14;100187.53;5013640;28;20029;-61
2021/08/07 02:03:59;;;;;;;2.28;0.77;;;;;;;23.26;52.18;100193.59;5014610;28;20030;-61
2021/08/07 02:06:25;;;;;;;3.45;1.13;;;;;;;23.23;52.74;100185.84;5012424;28;20030;-61
2021/08/07 02:08:51;;;;;;;1.40;0.88;;;;;;;23.29;51.90;100195.88;4996696;28;20045;-61
2021/08/07 02:11:17;;;;;;;2.47;0.80;;;;;;;23.30;52.77;100186.63;5014298;28;20462;-61
2021/08/07 02:13:43;;;;;;;2.42;1.00;;;;;;;23.30;52.45;100186.63;5013002;28;20030;-60
2021/08/07 02:16:08;;;;;;;2.22;0.70;;;;;;;23.32;52.53;100186.38;5013185;28;20033;-61
2021/08/07 02:18:34;;;;;;;1.48;0.70;;;;;;;23.29;52.06;100187.69;5013193;28;20100;-61
2021/08/07 02:21:00;;;;;;;1.10;1.00;;;;;;;23.31;52.83;100192.94;5012612;28;20487;-61
2021/08/07 02:23:26;;;;;;;1.92;1.15;;;;;;;23.31;51.98;100182.81;5014018;28;20030;-61
2021/08/07 02:25:54;;;;;;;1.38;0.70;;;;;;;23.28;52.37;100183.31;5012827;28;20394;-61
2021/08/07 02:28:21;;;;;;;1.65;0.90;;;;;;;23.27;52.05;100178.88;5012817;28;20507;-61
2021/08/07 02:30:47;;;;;;;1.90;0.90;;;;;;;23.26;51.90;100179.09;5014498;28;20029;-61
2021/08/07 02:33:14;;;;;;;1.27;0.65;;;;;;;23.23;52.60;100174.91;5012982;28;20046;-61
2021/08/07 02:35:39;;;;;;;3.63;0.88;;;;;;;23.25;52.73;100183.75;5012999;28;20487;-61
2021/08/07 02:38:05;;;;;;;1.05;0.80;;;;;;;23.25;52.60;100182.91;5012674;28;20056;-61
2021/08/07 02:40:31;;;;;;;1.75;0.63;;;;;;;23.21;52.40;100166.13;5012923;28;20033;-61
2021/08/07 02:42:57;;;;;;;1.15;1.00;;;;;;;23.22;52.16;100169.69;5013902;28;20037;-61
2021/08/07 02:45:22;;;;;;;1.90;1.00;;;;;;;23.26;52.40;100168.16;5012809;28;20029;-61
2021/08/07 02:47:48;;;;;;;2.53;0.65;;;;;;;23.25;52.74;100164.63;5012833;28;20040;-62
2021/08/07 02:50:14;;;;;;;2.28;0.70;;;;;;;23.25;52.32;100155.56;5014141;28;20018;-62
2021/08/07 02:52:39;;;;;;;3.30;1.10;;;;;;;23.27;52.45;100158.91;5014035;28;20044;-61
2021/08/07 02:55:07;;;;;;;1.40;0.60;;;;;;;23.22;52.38;100156.88;5014225;28;20033;-61
2021/08/07 02:57:32;;;;;;;0.90;0.57;;;;;;;23.24;52.65;100160.22;5013631;28;20040;-61
2021/08/07 02:59:58;;;;;;;2.13;1.35;;;;;;;23.23;52.30;100161.25;5012447;28;20470;-61
2021/08/07 03:02:23;;;;;;;5.03;0.50;;;;;;;23.22;52.59;100156.03;5012452;28;20049;-62
2021/08/07 03:04:49;;;;;;;2.08;0.80;;;;;;;23.13;51.90;100141.84;5012356;28;20065;-61
2021/08/07 03:07:14;;;;;;;2.00;0.93;;;;;;;23.12;52.58;100140.16;5013610;28;20152;-61
2021/08/07 03:09:39;;;;;;;1.83;0.90;;;;;;;23.08;51.73;100139.78;5013862;28;20064;-61
2021/08/07 03:12:05;;;;;;;3.63;0.80;;;;;;;23.10;52.34;100151.31;5013565;28;20032;-61
2021/08/07 03:14:30;;;;;;;5.32;2.00;;;;;;;23.08;51.45;100145.25;5013521;28;20030;-61
2021/08/07 03:16:55;;;;;;;2.97;0.90;;;;;;;23.06;52.57;100146.56;5014378;28;20104;-61
2021/08/07 03:19:21;;;;;;;4.85;0.85;;;;;;;23.04;51.37;100154.13;5017352;28;20030;-61
2021/08/07 03:21:46;;;;;;;3.70;0.90;;;;;;;23.02;52.00;100153.50;5015852;28;20052;-61
2021/08/07 03:24:12;;;;;;;3.17;0.93;;;;;;;22.99;51.92;100151.22;5017263;28;20026;-62
2021/08/07 03:26:37;;;;;;;5.05;0.65;;;;;;;22.96;51.59;100144.31;5016294;28;20044;-61
2021/08/07 03:29:02;;;;;;;3.53;0.90;;;;;;;22.92;52.28;100139.56;5017134;28;20032;-61
2021/08/07 03:31:27;;;;;;;3.55;1.02;;;;;;;22.91;51.35;100143.34;5017475;28;20025;-61
2021/08/07 03:33:53;;;;;;;0.95;0.82;;;;;;;22.85;52.10;100138.78;5015951;28;20026;-61
2021/08/07 03:36:18;;;;;;;1.60;1.15;;;;;;;22.88;52.40;100150.09;5017825;28;20076;-61
2021/08/07 03:38:44;;;;;;;2.35;1.10;;;;;;;22.81;52.55;100143.03;5016924;28;20128;-62
2021/08/07 03:41:09;;;;;;;0.98;0.70;;;;;;;22.79;52.30;100139.66;5016840;28;20030;-61
2021/08/07 03:43:35;;;;;;;7.28;1.17;;;;;;;22.85;51.59;100144.22;5016374;28;20037;-61
2021/08/07 03:46:01;;;;;;;1.92;1.48;;;;;;;22.87;52.40;100155.75;5017166;28;20386;-60
2021/08/07 03:48:26;;;;;;;1.38;0.80;;;;;;;22.87;52.72;100155.75;5017108;28;20026;-61
2021/08/07 03:50:51;;;;;;;4.72;1.38;;;;;;;22.87;51.65;100147.56;5016980;28;20034;-61
2021/08/07 03:53:17;;;;;;;0.73;0.65;;;;;;;22.85;52.64;100138.78;5016825;28;20378;-61
2021/08/07 03:55:42;;;;;;;3.60;1.67;;;;;;;22.86;52.15;100135.00;5016906;28;20068;-62
2021/08/07 03:58:07;;;;;;;1.15;0.73;;;;;;;22.88;51.91;100132.84;5015664;28;20030;-62
2021/08/07 04:00:34;;;;;;;0.68;0.60;;;;;;;22.91;52.62;100138.72;5017066;28;20368;-62
2021/08/07 04:02:59;;;;;;;1.45;0.68;;;;;;;22.91;52.73;100135.13;5016803;28;20054;-62
2021/08/07 04:05:25;;;;;;;4.13;0.98;;;;;;;22.96;52.37;100146.22;5015425;28;20033;-61
2021/08/07 04:07:51;;;;;;;9.25;1.05;;;;;;;22.94;52.21;100138.25;5016904;28;20528;-61
2021/08/07 04:10:17;;;;;;;1.60;1.00;;;;;;;22.94;52.06;100132.81;5016383;28;20092;-60
2021/08/07 04:12:43;;;;;;;1.58;1.02;;;;;;;22.97;52.86;100126.03;5016831;28;20025;-61
2021/08/07 04:15:10;;;;;;;2.67;0.80;;;;;;;22.98;52.87;100141.34;5016266;28;20490;-61
2021/08/07 04:17:36;;;;;;;1.65;0.90;;;;;;;22.98;52.85;100135.88;5016754;28;20033;-62
2021/08/07 04:20:06;;;;;;;4.65;1.08;;;;;;;22.96;52.51;100127.09;5016156;28;20053;-61
2021/08/07 04:22:32;;;;;;;0.95;0.80;;;;;;;22.98;52.73;100130.44;5016029;28;20072;-62
2021/08/07 04:24:58;;;;;;;0.90;0.90;;;;;;;22.97;52.56;100126.03;5016656;28;20116;-61
2021/08/07 04:27:23;;;;;;;3.45;0.70;;;;;;;22.96;52.75;100129.81;5016338;28;20104;-62
2021/08/07 04:29:49;;;;;;;0.85;0.60;;;;;;;22.96;52.59;100129.81;5015038;28;20104;-61
2021/08/07 04:32:15;;;;;;;2.95;1.00;;;;;;;22.95;52.38;100139.06;5016145;28;20033;-61
2021/08/07 04:34:41;;;;;;;4.07;1.13;;;;;;;22.98;53.03;100134.00;5015842;28;20033;-61
2021/08/07 04:37:06;;;;;;;5.90;0.82;;;;;;;22.98;51.98;100133.16;5016228;28;20028;-61
2021/08/07 04:39:31;;;;;;;4.65;1.08;;;;;;;22.98;51.98;100134.00;5016103;28;20040;-61
2021/08/07 04:41:57;;;;;;;1.48;0.80;;;;;;;22.99;51.92;100135.69;5015981;28;20026;-61
2021/08/07 04:44:22;;;;;;;1.52;0.77;;;;;;;22.99;51.87;100135.69;5015777;28;20121;-61
2021/08/07 04:46:47;;;;;;;2.17;0.52;;;;;;;23.03;53.00;100136.06;5015742;28;20026;-61
2021/08/07 04:49:13;;;;;;;2.67;0.90;;;;;;;23.06;52.85;100132.88;5015068;28;20075;-61
2021/08/07 04:51:38;;;;;;;1.50;0.70;;;;;;;23.08;52.72;100133.50;5014630;28;20018;-61
2021/08/07 04:54:04;;;;;;;4.80;0.85;;;;;;;23.09;52.79;100130.50;5015713;28;20079;-61
2021/08/07 04:56:30;;;;;;;3.70;0.98;;;;;;;23.11;51.92;100127.56;5014610;28;20057;-61
2021/08/07 04:58:55;;;;;;;3.60;0.77;;;;;;;23.13;52.81;100119.97;5015519;28;20022;-62
2021/08/07 05:01:20;;;;;;;4.28;0.90;;;;;;;23.16;51.99;100123.09;5014487;28;20025;-62
2021/08/07 05:03:46;;;;;;;6.45;1.40;;;;;;;23.21;51.74;100130.59;5015358;28;20113;-62
2021/08/07 05:06:11;;;;;;;3.17;0.88;;;;;;;23.23;51.90;100125.72;5015652;28;20053;-62
2021/08/07 05:08:37;;;;;;;2.75;1.00;;;;;;;23.24;52.93;100119.22;5015405;28;20037;-62
2021/08/07 05:11:03;;;;;;;5.55;1.00;;;;;;;23.30;52.09;100126.50;5015344;28;20029;-62
2021/08/07 05:13:29;;;;;;;7.22;0.85;;;;;;;23.33;51.99;100115.09;5015728;28;20033;-62
2021/08/07 05:15:54;;;;;;;4.85;0.82;;;;;;;23.36;52.71;100117.38;5015391;28;20387;-61
2021/08/07 05:18:19;;;;;;;7.43;1.65;;;;;;;23.40;51.63;100115.03;5016069;28;20037;-61
2021/08/07 05:20:45;;;;;;;4.43;0.55;;;;;;;23.40;52.05;100109.56;5014982;28;20057;-61
2021/08/07 05:23:10;;;;;;;1.23;1.13;;;;;;;23.46;52.26;100111.38;5014177;28;20104;-62
2021/08/07 05:25:35;;;;;;;3.35;0.90;;;;;;;23.48;52.50;100101.88;5014994;28;20034;-61
2021/08/07 05:28:01;;;;;;;4.20;0.85;;;;;;;23.49;51.75;100111.78;5014939;28;20029;-61
2021/08/07 05:30:26;;;;;;;4.95;1.77;;;;;;;23.51;52.22;100117.84;5014860;28;20112;-61
2021/08/07 05:32:51;;;;;;;4.30;0.80;;;;;;;23.54;51.47;100105.59;5015402;28;20026;-61
2021/08/07 05:35:17;;;;;;;2.20;0.57;;;;;;;23.57;52.49;100100.50;5015068;28;20030;-61
2021/08/07 05:37:42;;;;;;;7.72;1.55;;;;;;;23.58;52.26;100102.19;5014998;28;20048;-61
2021/08/07 05:40:09;;;;;;;5.78;1.08;;;;;;;23.63;51.60;100107.78;5014672;28;20061;-62
2021/08/07 05:42:35;;;;;;;7.20;1.08;;;;;;;23.66;51.89;100099.13;5014857;28;20481;-62
2021/08/07 05:45:01;;;;;;;7.43;0.93;;;;;;;23.69;52.47;100100.56;5014811;28;20101;-62
2021/08/07 05:47:26;;;;;;;3.47;0.82;;;;;;;23.68;51.51;100091.50;5014515;28;20056;-62
2021/08/07 05:49:52;;;;;;;2.95;0.82;;;;;;;23.70;51.75;100100.31;5013276;28;20113;-62
2021/08/07 05:52:17;;;;;;;1.80;0.55;;;;;;;23.72;52.30;100098.19;5014902;28;20033;-61
2021/08/07 05:54:42;;;;;;;0.98;0.70;;;;;;;23.75;51.82;100086.78;5015198;28;20033;-61
2021/08/07 05:57:08;;;;;;;3.50;0.85;;;;;;;23.79;52.18;100089.88;5013234;28;20487;-61
2021/08/07 05:59:33;;;;;;;1.80;0.80;;;;;;;23.85;51.24;100097.16;5014686;28;20359;-62
2021/08/07 06:01:59;;;;;;;2.05;1.00;;;;;;;23.89;51.53;100092.91;5014538;28;20053;-61
2021/08/07 06:04:24;;;;;;;2.65;1.35;;;;;;;23.96;51.82;100103.72;5014859;28;20378;-62
2021/08/07 06:06:49;;;;;;;10.18;1.08;;;;;;;23.97;51.58;100095.28;5014622;28;20038;-62
2021/08/07 06:09:15;;;;;;;2.13;1.08;;;;;;;24.08;52.16;100099.97;5014527;28;20441;-61
2021/08/07 06:11:40;;;;;;;3.55;1.65;;;;;;;24.15;51.98;100099.88;5014489;28;20553;-61
2021/08/07 06:14:05;;;;;;;4.32;1.10;;;;;;;24.19;51.14;100103.81;5014466;28;20025;-61
2021/08/07 06:16:31;;;;;;;5.13;1.58;;;;;;;24.20;51.66;100098.09;5014061;28;20113;-61
2021/08/07 06:18:56;;;;;;;5.22;1.45;;;;;;;24.25;51.46;100091.94;5014037;28;20032;-61
2021/08/07 06:21:22;;;;;;;2.10;1.10;;;;;;;24.26;51.69;100099.09;5013714;28;20072;-61
2021/08/07 06:23:47;;;;;;;1.55;0.95;;;;;;;24.27;51.00;100095.25;5014051;28;20438;-62
2021/08/07 06:26:14;;;;;;;3.97;1.38;;;;;;;24.28;51.46;100085.97;5014214;28;20433;-61
2021/08/07 06:28:39;;;;;;;3.95;0.90;;;;;;;24.39;51.17;100098.00;5013988;28;20029;-61
2021/08/07 06:31:06;;;;;;;6.85;1.52;;;;;;;24.42;51.21;100087.44;5012650;28;20021;-62
2021/08/07 06:33:31;;;;;;;3.50;0.98;;;;;;;24.50;51.19;100094.44;5014122;28;20109;-61
2021/08/07 06:35:58;;;;;;;3.08;1.58;;;;;;;24.56;51.08;100094.34;5012915;28;20057;-62
2021/08/07 06:38:24;;;;;;;4.75;1.27;;;;;;;24.66;50.69;100080.88;5012587;28;20105;-60
2021/08/07 06:40:49;;;;;;;3.80;1.75;;;;;;;24.69;50.51;100085.88;5014037;28;20106;-61
2021/08/07 06:43:15;;;;;;;3.30;0.80;;;;;;;24.72;51.04;100082.66;5013766;28;20026;-61
2021/08/07 06:45:40;;;;;;;3.60;0.85;;;;;;;24.77;51.17;100084.66;5013813;28;20083;-60
2021/08/07 06:48:06;;;;;;;3.13;1.30;;;;;;;24.81;51.14;100085.91;5014125;28;20524;-61
2021/08/07 06:50:31;;;;;;;6.97;1.00;;;;;;;24.80;50.81;100085.06;5013688;28;20026;-60
2021/08/07 06:52:56;;;;;;;3.00;1.10;;;;;;;24.82;50.86;100084.81;5014891;28;20029;-60
2021/08/07 06:55:22;;;;;;;2.47;0.70;;;;;;;24.79;50.75;100083.38;5018272;28;20026;-60
2021/08/07 06:57:47;;;;;;;4.95;0.80;;;;;;;24.77;50.72;100074.53;5016544;28;20101;-60
2021/08/07 07:00:13;;;;;;;4.13;0.90;;;;;;;24.86;50.31;100081.38;5016608;28;20029;-60
2021/08/07 07:02:39;;;;;;;6.40;0.90;;;;;;;24.82;50.55;100074.69;5017879;28;20033;-61
2021/08/07 07:05:05;;;;;;;2.63;0.65;;;;;;;24.87;50.19;100076.72;5000004;28;20172;-60
2021/08/07 07:07:30;;;;;;;2.45;1.67;;;;;;;24.90;50.20;100079.78;5017459;28;20065;-60
2021/08/07 07:09:55;;;;;;;4.43;0.95;;;;;;;24.95;50.05;100078.25;5017751;28;20107;-61
2021/08/07 07:12:20;;;;;;;5.40;1.27;;;;;;;25.00;49.56;100078.34;5018142;28;20030;-61
2021/08/07 07:14:46;;;;;;;3.55;0.70;;;;;;;25.08;50.12;100080.72;5018181;28;20022;-61
2021/08/07 07:17:11;;;;;;;3.00;0.85;;;;;;;25.15;50.07;100085.00;5017328;28;20036;-61
2021/08/07 07:19:37;;;;;;;2.25;0.80;;;;;;;25.23;49.74;100090.13;5017551;28;20033;-60
2021/08/07 07:22:06;;;;;;;1.30;0.60;;;;;;;25.29;49.25;100093.78;5016968;28;20078;-61
2021/08/07 07:24:31;;;;;;;3.50;1.17;;;;;;;25.32;49.17;100093.31;5017213;28;20030;-61
2021/08/07 07:26:57;;;;;;;4.45;0.73;;;;;;;25.30;49.61;100087.22;5016008;28;20501;-61
2021/08/07 07:29:22;;;;;;;3.90;1.25;;;;;;;25.35;49.19;100092.78;5017342;28;20017;-60
2021/08/07 07:31:47;;;;;;;1.80;1.13;;;;;;;25.30;49.21;100073.50;5016173;28;20068;-61
2021/08/07 07:34:13;;;;;;;3.72;1.00;;;;;;;25.41;49.35;100080.84;5016452;28;20075;-60
2021/08/07 07:36:38;;;;;;;3.90;0.95;;;;;;;25.51;49.65;100085.75;5017302;28;20034;-61
2021/08/07 07:39:04;;;;;;;6.40;1.48;;;;;;;25.58;49.75;100086.41;5016916;28;20037;-61
2021/08/07 07:41:30;;;;;;;1.88;1.13;;;;;;;25.62;48.82;100079.38;5016180;28;20378;-60
2021/08/07 07:43:55;;;;;;;3.78;1.05;;;;;;;25.68;48.77;100092.97;5015862;28;20030;-60
2021/08/07 07:46:21;;;;;;;4.95;0.98;;;;;;;25.68;48.95;100078.41;5017133;28;20479;-60
2021/08/07 07:48:46;;;;;;;3.45;0.75;;;;;;;25.74;48.89;100091.94;5017285;28;20113;-60
2021/08/07 07:51:11;;;;;;;2.58;0.70;;;;;;;25.75;48.54;100082.66;5017352;28;20458;-60
2021/08/07 07:53:37;;;;;;;3.55;1.20;;;;;;;25.79;48.49;100083.84;5017064;28;20451;-60
2021/08/07 07:56:03;;;;;;;4.38;1.17;;;;;;;25.86;48.65;100078.19;5016930;28;20104;-60
2021/08/07 07:58:28;;;;;;;3.92;1.13;;;;;;;25.95;48.58;100083.03;5015358;28;20021;-60
2021/08/07 08:00:54;;;;;;;3.08;0.73;;;;;;;25.99;47.91;100077.88;5016988;28;20022;-60
2021/08/07 08:03:19;;;;;;;2.17;1.00;;;;;;;26.04;47.96;100081.53;5016735;28;20028;-60
2021/08/07 08:05:45;;;;;;;7.25;1.23;;;;;;;26.09;47.80;100077.22;5015641;28;20037;-60
2021/08/07 08:08:10;;;;;;;4.07;0.80;;;;;;;26.15;48.01;100076.25;5016427;28;20057;-59
2021/08/07 08:10:38;;;;;;;1.00;0.70;;;;;;;26.26;47.97;100080.81;5016642;28;20076;-60
2021/08/07 08:13:04;;;;;;;2.78;0.75;;;;;;;26.33;47.26;100074.06;5016467;28;20104;-60
2021/08/07 08:15:29;;;;;;;2.65;0.98;;;;;;;26.45;47.52;100063.84;5016681;28;20109;-60
2021/08/07 08:17:54;;;;;;;4.55;1.40;;;;;;;26.58;47.06;100076.38;5016262;28;20080;-60
2021/08/07 08:20:20;;;;;;;3.15;0.63;;;;;;;26.67;47.02;100063.88;5014680;28;20390;-60
2021/08/07 08:22:46;;;;;;;4.15;0.98;;;;;;;26.78;46.93;100065.72;5016493;28;20029;-60
2021/08/07 08:25:12;;;;;;;4.00;1.20;;;;;;;26.95;46.54;100058.25;5016326;28;20044;-60
2021/08/07 08:27:38;;;;;;;9.95;2.75;;;;;;;27.13;46.94;100057.97;5015146;28;20022;-60
2021/08/07 08:30:04;;;;;;;4.68;1.10;;;;;;;27.28;46.73;100050.94;5016243;28;20026;-60
2021/08/07 08:32:30;;;;;;;3.35;1.02;;;;;;;27.68;45.27;100054.19;5015849;28;20053;-60
2021/08/07 08:34:55;;;;;;;4.63;1.05;;;;;;;28.42;45.16;100052.38;5014746;28;20605;-60
2021/08/07 08:37:21;;;;;;;7.15;1.30;;;;;;;28.96;44.18;100055.78;5016128;28;20033;-60
2021/08/07 08:39:46;;;;;;;5.03;1.00;;;;;;;29.17;43.99;100057.53;5016319;28;20028;-59
2021/08/07 08:42:11;;;;;;;4.00;1.13;;;;;;;29.66;43.41;100055.22;5015940;28;20383;-60
2021/08/07 08:44:38;;;;;;;3.72;1.00;;;;;;;30.12;42.89;100058.91;5016341;28;20108;-60
2021/08/07 08:47:05;;;;;;;1.95;0.90;;;;;;;30.45;42.71;100052.84;5016203;28;20030;-60
2021/08/07 08:49:32;;;;;;;3.10;1.83;;;;;;;30.80;41.60;100051.06;5014465;28;20528;-60
2021/08/07 08:52:00;;;;;;;6.95;1.30;;;;;;;30.92;42.17;100046.94;5015815;28;20022;-60
2021/08/07 08:54:26;;;;;;;7.30;1.00;;;;;;;30.92;42.18;100043.31;5015736;28;20518;-60
2021/08/07 08:56:52;;;;;;;5.60;0.85;;;;;;;31.21;41.47;100044.34;5015695;28;20026;-60
2021/08/07 08:59:21;;;;;;;3.53;0.75;;;;;;;31.20;41.48;100037.13;5015986;28;20060;-60
2021/08/07 09:01:48;;;;;;;5.72;1.27;;;;;;;31.50;41.12;100044.47;5015584;28;20026;-60
2021/08/07 09:04:13;;;;;;;2.38;0.65;;;;;;;31.07;41.56;100048.81;5015552;28;20488;-61
2021/08/07 09:06:39;;;;;;;2.15;0.68;;;;;;;31.25;40.39;100042.66;5015755;28;20113;-60
2021/08/07 09:09:09;;;;;;;4.28;1.00;;;;;;;31.26;40.11;100035.16;5015502;28;20029;-61
2021/08/07 09:11:53;;;;;;;6.13;1.10;;;;;;;31.70;39.40;100033.28;5015360;28;20402;-60
2021/08/07 09:14:25;;;;;;;2.67;0.60;;;;;;;31.82;39.90;100032.91;5015441;28;20029;-60
2021/08/07 09:17:04;;;;;;;0.85;0.50;;;;;;;31.75;39.45;100032.41;5015125;28;20045;-60
2021/08/07 09:19:38;;;;;;;4.40;0.60;;;;;;;31.79;39.11;100033.50;5015306;28;20092;-60
2021/08/07 09:22:07;;;;;;;2.42;0.70;;;;;;;31.41;39.76;100033.13;5015009;28;20554;-60
2021/08/07 09:24:34;;;;;;;5.57;0.68;;;;;;;31.20;39.87;100037.13;5015505;28;20092;-61
2021/08/07 09:27:04;;;;;;;4.03;0.65;;;;;;;31.16;39.62;100024.97;5015090;28;20053;-60
2021/08/07 09:29:40;;;;;;;5.15;0.70;;;;;;;31.27;39.27;100025.75;5014788;28;20022;-60
2021/08/07 09:32:06;;;;;;;8.05;0.63;;;;;;;30.92;39.61;100023.94;5013459;28;20025;-60
2021/08/07 09:34:31;;;;;;;8.55;1.70;;;;;;;30.82;39.82;100040.59;5014880;28;20021;-60
2021/08/07 09:36:57;;;;;;;1.85;0.60;;;;;;;31.22;39.16;100023.84;5015023;28;20471;-60
2021/08/07 09:39:35;;;;;;;3.63;0.80;;;;;;;30.89;39.56;100030.03;5015149;28;20400;-60
2021/08/07 09:42:01;;;;;;;4.03;0.80;;;;;;;30.60;39.71;100031.78;5014864;28;20742;-60
2021/08/07 09:44:27;;;;;;;2.70;0.75;;;;;;;30.42;39.93;100025.75;5014876;28;20105;-60
2021/08/07 09:47:10;;;;;;;0.80;0.63;;;;;;;30.22;39.64;100020.19;5015383;28;20022;-60
2021/08/07 09:49:36;;;;;;;2.38;0.75;;;;;;;30.14;39.70;100022.69;5013258;28;20036;-60
2021/08/07 09:52:02;;;;;;;3.55;0.70;;;;;;;30.26;39.37;100026.84;5014721;28;20359;-61
2021/08/07 09:54:41;;;;;;;1.02;0.57;;;;;;;30.47;39.16;100033.19;5015058;28;20092;-60
2021/08/07 09:57:10;;;;;;;4.00;0.70;;;;;;;30.49;38.79;100037.31;5014621;28;20028;-60
2021/08/07 09:59:50;;;;;;;4.07;0.95;;;;;;;30.96;38.43;100036.13;5014597;28;20378;-60
2021/08/07 10:02:31;;;;;;;2.10;0.90;;;;;;;31.75;36.93;100024.09;5013297;28;20018;-60
2021/08/07 10:04:57;;;;;;;5.85;0.80;;;;;;;31.30;38.07;100026.00;5013019;28;20037;-60
2021/08/07 10:07:23;;;;;;;2.22;0.75;;;;;;;30.89;38.42;100030.03;5013310;28;20034;-60
2021/08/07 10:09:48;;;;;;;2.45;0.60;;;;;;;30.56;38.72;100028.75;5012949;28;20033;-60
2021/08/07 10:12:15;;;;;;;2.38;0.52;;;;;;;30.31;38.29;100024.06;5014594;28;20022;-60
2021/08/07 10:14:41;;;;;;;5.15;0.80;;;;;;;30.50;38.69;100027.94;5014856;28;20105;-61
2021/08/07 10:17:08;;;;;;;6.75;0.60;;;;;;;31.66;36.74;100013.63;5014219;28;20049;-61
2021/08/07 10:19:35;;;;;;;3.45;0.88;;;;;;;31.66;37.19;100001.72;5014474;28;20028;-61
2021/08/07 10:22:01;;;;;;;3.30;0.63;;;;;;;31.66;37.04;100005.31;5013858;28;20061;-61
2021/08/07 10:24:28;;;;;;;2.15;0.68;;;;;;;31.50;37.04;99998.22;5014161;28;20022;-60
2021/08/07 10:26:53;;;;;;;5.57;0.80;;;;;;;31.67;36.69;99993.13;5013340;28;20019;-60
2021/08/07 10:29:25;;;;;;;1.23;0.40;;;;;;;32.13;36.33;99996.38;5012940;28;20022;-60
2021/08/07 10:31:52;;;;;;;;;;;;;;;32.80;36.54;99987.06;5013399;28;20277;-61
2021/08/07 10:34:17;;;;;;;3.25;0.47;;;;;;;32.31;36.75;99977.34;5014009;28;19940;-60
2021/08/07 10:36:43;;;;;;;7.05;1.08;;;;;;;32.68;35.79;99975.59;5012795;28;20025;-60
2021/08/07 10:39:08;;;;;;;3.67;0.70;;;;;;;33.36;35.05;99958.63;5013676;28;20022;-60
2021/08/07 10:41:34;;;;;;;3.63;1.10;;;;;;;34.25;34.49;99970.53;5013894;28;20034;-60
2021/08/07 10:44:02;;;;;;;2.58;0.60;;;;;;;35.04;32.82;99972.00;5012872;28;20517;-61
2021/08/07 10:46:28;;;;;;;1.27;0.40;;;;;;;35.45;33.08;99952.44;5013842;28;20489;-61
2021/08/07 10:48:53;;;;;;;2.38;0.88;;;;;;;34.83;33.36;99963.25;5012480;28;20029;-61
2021/08/07 10:51:19;;;;;;;2.17;0.50;;;;;;;34.27;33.72;99951.56;5012721;28;20014;-61
2021/08/07 10:53:46;;;;;;;2.42;0.75;;;;;;;34.83;33.65;99954.91;5013886;28;20080;-60
2021/08/07 10:56:31;;;;;;;1.13;0.52;;;;;;;35.69;31.90;99944.63;5013833;28;20331;-61
2021/08/07 10:59:12;;;;;;;0.75;0.57;;;;;;;36.36;31.19;99945.38;5013766;28;20034;-61
2021/08/07 11:01:41;;;;;;;5.05;1.02;;;;;;;36.92;30.60;99947.41;5013695;28;20442;-60
2021/08/07 11:04:15;;;;;;;3.55;1.10;;;;;;;37.14;30.71;99936.16;5014067;28;20026;-61
2021/08/07 11:06:40;;;;;;;1.75;1.00;;;;;;;37.69;29.75;99936.31;5013952;28;20034;-61
2021/08/07 11:09:20;;;;;;;3.23;0.50;;;;;;;38.26;28.84;99934.09;5013719;28;20018;-61
2021/08/07 11:11:47;;;;;;;2.42;0.60;;;;;;;38.68;29.36;99937.06;5013611;28;20612;-60
2021/08/07 11:14:24;;;;;;;2.35;0.60;;;;;;;37.85;30.32;99922.66;5012637;28;20022;-61
2021/08/07 11:17:12;;;;;;;3.00;0.68;;;;;;;38.45;29.21;99920.53;5013659;28;20025;-61
2021/08/07 11:19:51;;;;;;;2.03;0.77;;;;;;;38.93;29.19;99924.94;5007774;28;20398;-61
2021/08/07 11:22:34;;;;;;;2.38;0.55;;;;;;;38.84;28.35;99926.94;5012379;28;20041;-61
2021/08/07 11:25:10;;;;;;;1.15;0.50;;;;;;;38.03;28.26;99927.09;5013560;28;20034;-61
2021/08/07 11:27:44;;;;;;;2.17;0.70;;;;;;;37.45;29.54;99932.41;5013594;28;20030;-61